LYSOV VNRC-VNLK
Flight info
| Callsign | LYSOV |
|---|---|
| Flight time | 0h 26m |
| Altitude | 13000 |
| Route | DCT |
| Aircraft | AEST/L-SDFGRY/S |
Departure
| Time | 2026-01-06 17:30 |
|---|---|
| Airport | Ramechhap Airport (VNRC) |
Arrival
| Time | 2026-01-06 17:56 |
|---|---|
| Airport | Tenzing-Hillary Airport (VNLK) |
| Time | Latitude | Longitude | Altitude | Speed | Heading |
|---|---|---|---|---|---|
| 2026-01-06 17:11 | 27.39393 | 86.06124 | 1653 ft | 0 kts | 228° |
| 2026-01-06 17:26 | 27.39391 | 86.06076 | 1667 ft | 0 kts | 304° |
| 2026-01-06 17:28 | 27.39397 | 86.06032 | 1669 ft | 10 kts | 218° |
| 2026-01-06 17:28 | 27.39323 | 86.05979 | 1667 ft | 15 kts | 213° |
| 2026-01-06 17:29 | 27.39235 | 86.05905 | 1665 ft | 52 kts | 36° |
| 2026-01-06 17:29 | 27.40341 | 86.06762 | 2059 ft | 122 kts | 31° |
| 2026-01-06 17:29 | 27.41082 | 86.07258 | 2639 ft | 122 kts | 28° |
| 2026-01-06 17:30 | 27.43310 | 86.08751 | 4320 ft | 129 kts | 39° |
| 2026-01-06 17:31 | 27.44723 | 86.10059 | 5449 ft | 134 kts | 39° |
| 2026-01-06 17:31 | 27.46021 | 86.11520 | 6393 ft | 136 kts | 71° |
| 2026-01-06 17:32 | 27.45454 | 86.13469 | 7296 ft | 138 kts | 127° |
| 2026-01-06 17:32 | 27.44293 | 86.15203 | 8170 ft | 141 kts | 127° |
| 2026-01-06 17:33 | 27.43111 | 86.16965 | 9022 ft | 143 kts | 127° |
| 2026-01-06 17:33 | 27.41900 | 86.18771 | 9836 ft | 148 kts | 127° |
| 2026-01-06 17:34 | 27.40639 | 86.20687 | 10558 ft | 155 kts | 127° |
| 2026-01-06 17:34 | 27.40284 | 86.21835 | 10844 ft | 159 kts | 95° |
| 2026-01-06 17:35 | 27.40919 | 86.25380 | 11798 ft | 159 kts | 65° |
| 2026-01-06 17:35 | 27.41553 | 86.27807 | 12369 ft | 165 kts | 81° |
| 2026-01-06 17:35 | 27.41657 | 86.29108 | 12697 ft | 167 kts | 82° |
| 2026-01-06 17:36 | 27.41846 | 86.31719 | 13273 ft | 171 kts | 82° |
| 2026-01-06 17:37 | 27.42182 | 86.35995 | 13170 ft | 189 kts | 82° |
| 2026-01-06 17:37 | 27.42426 | 86.38914 | 13170 ft | 185 kts | 82° |
| 2026-01-06 17:37 | 27.42543 | 86.40368 | 13181 ft | 187 kts | 82° |
| 2026-01-06 17:38 | 27.42785 | 86.43301 | 13174 ft | 187 kts | 82° |
| 2026-01-06 17:39 | 27.43176 | 86.47550 | 13148 ft | 177 kts | 81° |
| 2026-01-06 17:39 | 27.43460 | 86.50277 | 13144 ft | 176 kts | 81° |
| 2026-01-06 17:39 | 27.43604 | 86.51642 | 13138 ft | 176 kts | 81° |
| 2026-01-06 17:40 | 27.43892 | 86.54381 | 13128 ft | 176 kts | 81° |
| 2026-01-06 17:41 | 27.44359 | 86.58514 | 13134 ft | 180 kts | 81° |
| 2026-01-06 17:41 | 27.44705 | 86.61252 | 13131 ft | 176 kts | 81° |
| 2026-01-06 17:42 | 27.45055 | 86.63981 | 13122 ft | 177 kts | 81° |
| 2026-01-06 17:42 | 27.45408 | 86.66707 | 13125 ft | 175 kts | 81° |
| 2026-01-06 17:43 | 27.45759 | 86.69402 | 13134 ft | 174 kts | 81° |
| 2026-01-06 17:43 | 27.45931 | 86.70742 | 13114 ft | 177 kts | 81° |
| 2026-01-06 17:43 | 27.45898 | 86.73425 | 13136 ft | 171 kts | 115° |
| 2026-01-06 17:44 | 27.43972 | 86.74565 | 13137 ft | 165 kts | 193° |
| 2026-01-06 17:45 | 27.40745 | 86.73169 | 13161 ft | 167 kts | 208° |
| 2026-01-06 17:45 | 27.39527 | 86.71215 | 13149 ft | 159 kts | 277° |
| 2026-01-06 17:45 | 27.39925 | 86.70103 | 13142 ft | 156 kts | 311° |
| 2026-01-06 17:46 | 27.43047 | 86.69786 | 13167 ft | 161 kts | 4° |
| 2026-01-06 17:47 | 27.45307 | 86.70166 | 13127 ft | 166 kts | 4° |
| 2026-01-06 17:47 | 27.46451 | 86.70317 | 13124 ft | 166 kts | 4° |
| 2026-01-06 17:47 | 27.48713 | 86.70590 | 13145 ft | 166 kts | 0° |
| 2026-01-06 17:48 | 27.51086 | 86.70675 | 13125 ft | 175 kts | 359° |
| 2026-01-06 17:49 | 27.54790 | 86.70664 | 13141 ft | 178 kts | 351° |
| 2026-01-06 17:49 | 27.57357 | 86.70268 | 12771 ft | 197 kts | 350° |
| 2026-01-06 17:50 | 27.59988 | 86.69814 | 12346 ft | 181 kts | 349° |
| 2026-01-06 17:50 | 27.62325 | 86.69175 | 11652 ft | 174 kts | 348° |
| 2026-01-06 17:50 | 27.63464 | 86.68952 | 11475 ft | 163 kts | 348° |
| 2026-01-06 17:51 | 27.65755 | 86.68934 | 10570 ft | 157 kts | 24° |
| 2026-01-06 17:51 | 27.67139 | 86.70388 | 9711 ft | 126 kts | 38° |
| 2026-01-06 17:52 | 27.68088 | 86.71829 | 9199 ft | 114 kts | 56° |
| 2026-01-06 17:53 | 27.68868 | 86.71785 | 9299 ft | 150 kts | 231° |
| 2026-01-06 17:53 | 27.67505 | 86.70149 | 10099 ft | 142 kts | 229° |
| 2026-01-06 17:54 | 27.66029 | 86.68932 | 10301 ft | 163 kts | 160° |
| 2026-01-06 17:54 | 27.66142 | 86.70729 | 10134 ft | 158 kts | 1° |
| 2026-01-06 17:55 | 27.67720 | 86.71483 | 9367 ft | 124 kts | 45° |
| 2026-01-06 17:55 | 27.68291 | 86.72196 | 9189 ft | 117 kts | 59° |
| 2026-01-06 17:55 | 27.68773 | 86.73167 | 9467 ft | 7 kts | 151° |
| 2026-01-06 17:56 | 27.68748 | 86.73199 | 9471 ft | 0 kts | 50° |